Davison Army Air Field
KDAA : now visible

Airfield :











YOU CAN JOIN US ON...

 
LOGIN :

Register | Disclaimer

   EN    FR    IT 

 









Legend :    VFR   Marginal VFR   IFR   Intensive IFR   Very Intensive IFR
Visi :
Ceiling :
>= 8 km
>= 3000ft
5 to 8 km
1000 to 3000 ft
1500m to 5 km
500 to 1000 ft
800 to 1500m
200 to 500 ft
< 800m
< 200 ft
Symbols :   Thunderstorms  Fog  Heavy snow  Heavy precipitations  Wind > 20 kt






- Airport Elevation : 73 ft


KDAA - Davison Army Air Field

METAR N/A
TAF TAF KDAA
Valid from the 20 at 13:00 until the 21 at 19:00 UTC


201300Z 2013/2119 31015G22KT 9999 FEW090 QNH3000INS
BECMG 2014/2015 30015G25KT 9999 FEW090 510005 QNH3004INS
TEMPO 2015/2021 30015G35KT 520005
BECMG 2020/2021 30015G25KT 9999 SKC 510005 QNH3005INS
BECMG 2022/2023 31009KT 9999 FEW150 QNH2988INS
BECMG 2113/2114 19006KT 9999 SCT060 QNH2980INS
BECMG 2117/2118 24010G15KT 9999 FEW035 QNH2972INS TX06/2018Z TNM02/2109Z
KZDC FIR / North America



MET'MAP, your aeronautical weather chart ! - Copyright ORBIFLY December 2007 - Disclaimer

ORBIFLY MET'MAP TEAM :

Programming & Development : Alexandra Zaïnal
Concept & original design : Baudouin d'Aumeries
Assistance for programming : Marc-Olivier Méhu
Technical & hardware support : Manuel Goepfert

Contact : metmap@orbifly.com




SOURCES & CREDITS :

   NOAA       Earth
Advisory